createdAt,value
2023-02-12T00:01:35.936Z,95613.81
2023-02-12T00:04:02.999Z,95607.06
2023-02-12T00:06:29.726Z,95614.25
2023-02-12T00:08:57.503Z,95611.00
2023-02-12T00:11:29.143Z,95602.91
2023-02-12T00:13:56.619Z,95596.44
2023-02-12T00:16:25.701Z,95592.44
2023-02-12T00:18:57.157Z,95608.47
2023-02-12T00:21:24.398Z,95602.69
2023-02-12T00:23:51.149Z,95623.28
2023-02-12T00:26:19.688Z,95627.84
2023-02-12T00:28:46.745Z,95635.91
2023-02-12T00:31:16.582Z,95642.56
2023-02-12T00:33:43.801Z,95637.28
2023-02-12T00:36:15.327Z,95637.38
2023-02-12T00:38:42.228Z,95639.06
2023-02-12T00:41:09.257Z,95629.81
2023-02-12T00:43:36.059Z,95644.09
2023-02-12T00:46:02.932Z,95642.88
2023-02-12T00:48:29.640Z,95642.63
2023-02-12T00:50:56.376Z,95646.16
2023-02-12T00:53:23.186Z,95651.28
2023-02-12T00:55:49.817Z,95635.81
2023-02-12T00:58:18.912Z,95658.53
2023-02-12T01:00:46.019Z,95657.06
2023-02-12T01:03:14.157Z,95662.59
2023-02-12T01:05:40.898Z,95676.22
2023-02-12T01:08:07.690Z,95668.66
2023-02-12T01:10:35.132Z,95676.91
2023-02-12T01:13:01.850Z,95663.00
2023-02-12T01:15:28.654Z,95668.22
2023-02-12T01:17:55.593Z,95666.41
2023-02-12T01:20:23.673Z,95663.16
2023-02-12T01:22:50.686Z,95660.72
2023-02-12T01:25:20.451Z,95652.22
2023-02-12T01:27:47.502Z,95655.03
2023-02-12T01:30:14.977Z,95648.59
2023-02-12T01:32:44.716Z,95664.91
2023-02-12T01:35:11.480Z,95667.59
2023-02-12T01:37:38.922Z,95661.03
2023-02-12T01:40:09.207Z,95668.03
2023-02-12T01:42:36.004Z,95671.84
2023-02-12T01:45:14.668Z,95678.72
2023-02-12T01:47:43.546Z,95669.91
2023-02-12T01:50:13.845Z,95674.09
2023-02-12T01:52:44.494Z,95656.06
2023-02-12T01:55:11.620Z,95649.84
2023-02-12T01:57:41.466Z,95649.41
2023-02-12T02:00:16.761Z,95648.84
2023-02-12T02:02:45.534Z,95649.84
2023-02-12T02:05:13.426Z,95655.94
2023-02-12T02:07:40.914Z,95652.75
2023-02-12T02:10:09.114Z,95651.94
2023-02-12T02:12:54.735Z,95642.13
2023-02-12T02:15:21.492Z,95638.06
2023-02-12T02:18:34.648Z,95636.56
2023-02-12T02:21:54.069Z,95626.44
2023-02-12T02:24:31.099Z,95632.69
2023-02-12T02:27:16.491Z,95625.75
2023-02-12T02:29:54.663Z,95646.22
2023-02-12T02:32:30.274Z,95645.66
2023-02-12T02:35:18.816Z,95645.91
2023-02-12T02:38:05.100Z,95632.66
2023-02-12T02:40:49.068Z,95645.13
2023-02-12T02:43:19.137Z,95654.28
2023-02-12T02:45:49.343Z,95658.03
2023-02-12T02:48:24.302Z,95646.22
2023-02-12T02:50:56.828Z,95648.00
2023-02-12T02:53:34.164Z,95653.69
2023-02-12T02:56:03.377Z,95661.38
2023-02-12T02:58:35.972Z,95655.56
2023-02-12T03:01:05.623Z,95661.13
2023-02-12T03:03:43.690Z,95664.63
2023-02-12T03:06:49.433Z,95658.25
2023-02-12T03:09:24.088Z,95664.31
2023-02-12T03:11:51.188Z,95661.75
2023-02-12T03:14:28.397Z,95660.50
2023-02-12T03:16:59.603Z,95672.44
2023-02-12T03:19:40.038Z,95672.47
2023-02-12T03:22:09.980Z,95680.31
2023-02-12T03:25:04.837Z,95690.53
2023-02-12T03:27:51.164Z,95691.63
2023-02-12T03:30:18.279Z,95688.13
2023-02-12T03:32:58.308Z,95684.88
2023-02-12T03:35:48.510Z,95693.81
2023-02-12T03:38:27.308Z,95687.41
2023-02-12T03:40:59.216Z,95691.25
2023-02-12T03:43:35.785Z,95692.72
2023-02-12T03:46:12.238Z,95696.22
2023-02-12T03:49:05.405Z,95682.69
2023-02-12T03:51:37.921Z,95692.97
2023-02-12T03:54:05.465Z,95697.69
2023-02-12T03:56:45.670Z,95721.00
2023-02-12T03:59:12.429Z,95710.22
2023-02-12T04:01:39.316Z,95708.34
2023-02-12T04:04:08.349Z,95713.47
2023-02-12T04:06:35.428Z,95720.91
2023-02-12T04:09:05.709Z,95726.59
2023-02-12T04:12:07.565Z,95721.91
2023-02-12T04:14:54.295Z,95730.72
2023-02-12T04:17:27.122Z,95733.81
2023-02-12T04:20:12.107Z,95734.56
2023-02-12T04:22:38.762Z,95740.09
2023-02-12T04:25:29.441Z,95731.84
2023-02-12T04:28:02.184Z,95741.13
2023-02-12T04:30:33.390Z,95733.16
2023-02-12T04:33:03.279Z,95745.59
2023-02-12T04:35:42.802Z,95745.13
2023-02-12T04:38:22.051Z,95741.69
2023-02-12T04:40:49.508Z,95740.44
2023-02-12T04:43:26.963Z,95734.00
2023-02-12T04:45:54.054Z,95744.50
2023-02-12T04:48:22.158Z,95735.75
2023-02-12T04:50:49.113Z,95719.75
2023-02-12T04:53:15.865Z,95719.56
2023-02-12T04:55:42.591Z,95720.94
2023-02-12T04:58:09.712Z,95717.44
2023-02-12T05:00:36.482Z,95724.63
2023-02-12T05:03:03.392Z,95722.50
2023-02-12T05:05:30.204Z,95719.75
2023-02-12T05:07:57.063Z,95718.13
2023-02-12T05:10:23.787Z,95717.72
2023-02-12T05:12:52.932Z,95731.69
2023-02-12T05:15:19.909Z,95736.38
2023-02-12T05:17:47.000Z,95731.72
2023-02-12T05:20:13.906Z,95731.50
2023-02-12T05:22:40.606Z,95721.94
2023-02-12T05:25:07.384Z,95726.38
2023-02-12T05:27:33.930Z,95730.56
2023-02-12T05:30:00.549Z,95727.44
2023-02-12T05:32:27.174Z,95724.97
2023-02-12T05:34:53.755Z,95732.00
2023-02-12T05:37:20.364Z,95735.50
2023-02-12T05:39:50.087Z,95734.56
2023-02-12T05:42:16.684Z,95737.19
2023-02-12T05:44:43.251Z,95737.53
2023-02-12T05:47:09.873Z,95751.56
2023-02-12T05:49:36.705Z,95744.34
2023-02-12T05:52:03.359Z,95751.03
2023-02-12T05:54:30.039Z,95742.53
2023-02-12T05:56:56.664Z,95741.72
2023-02-12T05:59:23.766Z,95745.56
2023-02-12T06:01:51.920Z,95747.50
2023-02-12T06:04:24.276Z,95755.03
2023-02-12T06:06:52.344Z,95753.22
2023-02-12T06:09:19.217Z,95735.75
2023-02-12T06:11:45.868Z,95756.66
2023-02-12T06:14:17.539Z,95764.09
2023-02-12T06:16:46.821Z,95765.94
2023-02-12T06:19:13.476Z,95769.47
2023-02-12T06:21:40.109Z,95771.34
2023-02-12T06:24:06.964Z,95786.00
2023-02-12T06:26:33.668Z,95786.59
2023-02-12T06:29:01.380Z,95776.09
2023-02-12T06:31:31.064Z,95779.97
2023-02-12T06:34:00.441Z,95790.41
2023-02-12T06:36:27.275Z,95796.41
2023-02-12T06:38:54.133Z,95789.25
2023-02-12T06:41:21.638Z,95805.66
2023-02-12T06:43:48.526Z,95802.09
2023-02-12T06:46:15.516Z,95806.09
2023-02-12T06:48:42.542Z,95801.69
2023-02-12T06:51:12.318Z,95803.03
2023-02-12T06:53:39.223Z,95805.09
2023-02-12T06:56:11.270Z,95794.41
2023-02-12T06:58:39.190Z,95800.75
2023-02-12T07:01:17.861Z,95805.78
2023-02-12T07:03:48.865Z,95802.16
2023-02-12T07:06:15.852Z,95803.31
2023-02-12T07:08:42.626Z,95799.53
2023-02-12T07:11:09.388Z,95801.38
2023-02-12T07:13:36.116Z,95803.00
2023-02-12T07:16:08.888Z,95795.59
2023-02-12T07:18:36.212Z,95800.66
2023-02-12T07:23:56.222Z,95811.28
2023-02-12T07:26:23.440Z,95804.59
2023-02-12T07:28:50.880Z,95807.31
2023-02-12T07:31:19.822Z,95814.25
2023-02-12T07:33:47.277Z,95798.19
2023-02-12T07:36:16.882Z,95801.16
2023-02-12T07:38:43.825Z,95802.63
2023-02-12T07:41:12.552Z,95802.31
2023-02-12T07:43:44.751Z,95820.31
2023-02-12T07:46:17.293Z,95817.34
2023-02-12T07:48:45.163Z,95815.78
2023-02-12T07:51:19.404Z,95824.63
2023-02-12T07:53:46.477Z,95818.31
2023-02-12T07:56:24.595Z,95811.03
2023-02-12T07:58:53.477Z,95824.97
2023-02-12T08:01:23.258Z,95833.75
2023-02-12T08:03:51.384Z,95831.00
2023-02-12T08:06:19.549Z,95836.19
2023-02-12T08:08:47.142Z,95832.69
2023-02-12T08:11:15.331Z,95830.81
2023-02-12T08:13:42.071Z,95828.56
2023-02-12T08:16:14.211Z,95828.94
2023-02-12T08:18:41.036Z,95832.75
2023-02-12T08:21:13.377Z,95847.09
2023-02-12T08:23:40.326Z,95841.94
2023-02-12T08:26:08.094Z,95847.09
2023-02-12T08:28:35.104Z,95833.84
2023-02-12T08:31:07.823Z,95846.00
2023-02-12T08:33:34.675Z,95842.50
2023-02-12T08:36:06.720Z,95842.22
2023-02-12T08:38:34.205Z,95844.38
2023-02-12T08:41:05.749Z,95844.94
2023-02-12T08:43:32.824Z,95838.03
2023-02-12T08:46:14.030Z,95853.06
2023-02-12T08:48:41.730Z,95855.50
2023-02-12T08:51:11.882Z,95852.25
2023-02-12T08:53:40.543Z,95858.63
2023-02-12T08:56:12.273Z,95861.16
2023-02-12T08:58:39.803Z,95856.16
2023-02-12T09:01:11.530Z,95858.72
2023-02-12T09:03:40.475Z,95856.81
2023-02-12T09:06:09.069Z,95860.59
2023-02-12T09:08:36.793Z,95855.97
2023-02-12T09:11:08.309Z,95860.44
2023-02-12T09:13:36.352Z,95869.81
2023-02-12T09:16:04.732Z,95872.38
2023-02-12T09:18:31.992Z,95873.16
2023-02-12T09:21:03.338Z,95872.63
2023-02-12T09:23:30.006Z,95880.16
2023-02-12T09:25:57.260Z,95887.00
2023-02-12T09:28:24.518Z,95887.97
2023-02-12T09:30:51.674Z,95886.19
2023-02-12T09:33:18.703Z,95885.13
2023-02-12T09:35:45.524Z,95900.03
2023-02-12T09:38:13.397Z,95892.13
2023-02-12T09:40:59.466Z,95904.44
2023-02-12T09:43:45.365Z,95898.72
2023-02-12T09:46:54.433Z,95901.34
2023-02-12T09:49:39.640Z,95908.38
2023-02-12T09:52:06.878Z,95907.50
2023-02-12T09:54:39.091Z,95915.75
2023-02-12T09:57:29.720Z,95920.63
2023-02-12T10:00:04.906Z,95924.56
2023-02-12T10:02:31.686Z,95921.59
2023-02-12T10:05:01.921Z,95930.59
2023-02-12T10:07:38.892Z,95925.47
2023-02-12T10:10:20.515Z,95923.16
2023-02-12T10:13:36.816Z,95930.34
2023-02-12T10:16:09.193Z,95928.44
2023-02-12T10:18:45.217Z,95929.38
2023-02-12T10:21:20.916Z,95928.22
2023-02-12T10:23:59.882Z,95929.38
2023-02-12T10:26:42.880Z,95926.16
2023-02-12T10:29:25.170Z,95934.44
2023-02-12T10:32:01.684Z,95924.94
2023-02-12T10:34:35.820Z,95928.13
2023-02-12T10:37:10.393Z,95931.22
2023-02-12T10:39:40.303Z,95933.88
2023-02-12T10:42:17.422Z,95936.00
2023-02-12T10:44:44.237Z,95933.22
2023-02-12T10:47:20.009Z,95934.19
2023-02-12T10:49:58.815Z,95932.00
2023-02-12T10:52:44.107Z,95936.25
2023-02-12T10:55:34.843Z,95935.50
2023-02-12T10:58:04.125Z,95937.78
2023-02-12T11:00:33.461Z,95935.06
2023-02-12T11:03:12.269Z,95940.53
2023-02-12T11:05:43.899Z,95939.56
2023-02-12T11:08:40.432Z,95937.09
2023-02-12T11:11:17.503Z,95941.72
2023-02-12T11:13:58.200Z,95930.50
2023-02-12T11:16:33.432Z,95927.28
2023-02-12T11:19:05.523Z,95929.50
2023-02-12T11:21:33.646Z,95923.69
2023-02-12T11:24:32.765Z,95926.94
2023-02-12T11:27:15.420Z,95926.47
2023-02-12T11:29:43.833Z,95927.13
2023-02-12T11:32:19.222Z,95925.69
2023-02-12T11:35:04.406Z,95922.47
2023-02-12T11:37:33.488Z,95918.50
2023-02-12T11:40:00.196Z,95915.22
2023-02-12T11:42:27.757Z,95909.16
2023-02-12T11:44:58.614Z,95918.84
2023-02-12T11:47:35.132Z,95918.25
2023-02-12T11:50:18.942Z,95916.03
2023-02-12T11:52:49.736Z,95923.88
2023-02-12T11:55:23.429Z,95919.03
2023-02-12T11:57:52.489Z,95909.97
2023-02-12T12:00:29.131Z,95911.41
2023-02-12T12:03:07.608Z,95921.19
2023-02-12T12:05:40.867Z,95907.06
2023-02-12T12:08:32.315Z,95915.78
2023-02-12T12:11:11.506Z,95902.53
2023-02-12T12:13:43.830Z,95903.97
2023-02-12T12:16:32.911Z,95902.28
2023-02-12T12:19:44.609Z,95900.41
2023-02-12T12:22:20.951Z,95894.91
2023-02-12T12:24:56.722Z,95894.59
2023-02-12T12:28:04.067Z,95884.22
2023-02-12T12:30:49.247Z,95879.38
2023-02-12T12:33:22.188Z,95879.22
2023-02-12T12:36:10.238Z,95880.56
2023-02-12T12:38:49.309Z,95875.72
2023-02-12T12:41:25.615Z,95876.94
2023-02-12T12:44:14.011Z,95867.03
2023-02-12T12:46:48.706Z,95865.16
2023-02-12T12:49:24.458Z,95863.00
2023-02-12T12:52:04.081Z,95855.53
2023-02-12T12:54:44.978Z,95850.97
2023-02-12T12:57:35.150Z,95855.81
2023-02-12T13:00:35.317Z,95854.56
2023-02-12T13:03:15.486Z,95859.13
2023-02-12T13:05:57.196Z,95862.38
2023-02-12T13:08:38.315Z,95857.84
2023-02-12T13:11:52.989Z,95859.66
2023-02-12T13:14:45.112Z,95850.91
2023-02-12T13:17:20.736Z,95850.44
2023-02-12T13:20:01.276Z,95855.13
2023-02-12T13:22:37.119Z,95857.69
2023-02-12T13:25:21.156Z,95864.47
2023-02-12T13:27:48.767Z,95850.09
2023-02-12T13:30:18.337Z,95858.66
2023-02-12T13:32:51.414Z,95864.47
2023-02-12T13:35:25.274Z,95860.94
2023-02-12T13:37:54.080Z,95867.34
2023-02-12T13:40:26.422Z,95864.16
2023-02-12T13:42:57.075Z,95856.00
2023-02-12T13:45:30.535Z,95865.34
2023-02-12T13:48:01.797Z,95854.91
2023-02-12T13:50:46.072Z,95863.75
2023-02-12T13:53:18.679Z,95856.22
2023-02-12T13:55:57.712Z,95861.59
2023-02-12T13:58:31.167Z,95856.00
2023-02-12T14:01:18.430Z,95858.00
2023-02-12T14:03:45.126Z,95855.88
2023-02-12T14:06:17.017Z,95857.41
2023-02-12T14:09:19.015Z,95863.72
2023-02-12T14:11:51.631Z,95864.03
2023-02-12T14:14:27.984Z,95851.94
2023-02-12T14:16:54.860Z,95846.22
2023-02-12T14:19:54.497Z,95860.97
2023-02-12T14:22:27.482Z,95862.47
2023-02-12T14:24:57.894Z,95850.09
2023-02-12T14:27:36.382Z,95849.34
2023-02-12T14:30:12.218Z,95862.28
2023-02-12T14:32:55.443Z,95852.75
2023-02-12T14:35:33.144Z,95858.56
2023-02-12T14:38:30.346Z,95859.53
2023-02-12T14:41:34.259Z,95850.22
2023-02-12T14:44:23.428Z,95848.00
2023-02-12T14:46:55.103Z,95847.81
2023-02-12T14:49:39.980Z,95851.81
2023-02-12T14:52:14.761Z,95846.34
2023-02-12T14:54:44.522Z,95848.63
2023-02-12T14:57:20.380Z,95854.44
2023-02-12T14:59:48.337Z,95836.94
2023-02-12T15:02:25.809Z,95852.44
2023-02-12T15:04:54.506Z,95858.56
2023-02-12T15:07:28.358Z,95858.88
2023-02-12T15:10:10.284Z,95862.47
2023-02-12T15:12:47.968Z,95861.34
2023-02-12T15:15:28.178Z,95865.88
2023-02-12T15:18:07.590Z,95857.91
2023-02-12T15:20:38.920Z,95864.38
2023-02-12T15:23:34.887Z,95845.19
2023-02-12T15:26:02.266Z,95855.63
2023-02-12T15:28:33.753Z,95864.47
2023-02-12T15:31:02.194Z,95866.78
2023-02-12T15:33:34.722Z,95868.75
2023-02-12T15:36:02.499Z,95869.06
2023-02-12T15:38:36.240Z,95863.28
2023-02-12T15:41:04.946Z,95873.88
2023-02-12T15:43:36.546Z,95872.50
2023-02-12T15:46:06.477Z,95878.63
2023-02-12T15:48:35.719Z,95879.69
2023-02-12T15:51:16.891Z,95873.38
2023-02-12T15:53:44.559Z,95868.31
2023-02-12T15:56:17.369Z,95865.41
2023-02-12T15:58:48.419Z,95863.41
2023-02-12T16:01:17.673Z,95871.44
2023-02-12T16:03:49.508Z,95874.69
2023-02-12T16:06:16.947Z,95874.84
2023-02-12T16:08:46.516Z,95875.81
2023-02-12T16:11:14.413Z,95878.75
2023-02-12T16:13:50.273Z,95874.69
2023-02-12T16:16:21.834Z,95880.41
2023-02-12T16:19:16.265Z,95881.47
2023-02-12T16:21:43.129Z,95887.00
2023-02-12T16:24:46.692Z,95887.81
2023-02-12T16:27:20.408Z,95878.72
2023-02-12T16:30:10.777Z,95883.19
2023-02-12T16:32:42.889Z,95883.44
2023-02-12T16:35:09.522Z,95891.94
2023-02-12T16:37:39.298Z,95893.69
2023-02-12T16:40:12.163Z,95881.34
2023-02-12T16:42:39.483Z,95873.75
2023-02-12T16:45:25.199Z,95886.41
2023-02-12T16:47:58.378Z,95894.34
2023-02-12T16:50:30.071Z,95885.03
2023-02-12T16:53:06.182Z,95890.34
2023-02-12T16:55:33.202Z,95893.59
2023-02-12T16:58:00.981Z,95894.81
2023-02-12T17:00:27.696Z,95900.31
2023-02-12T17:02:55.941Z,95897.97
2023-02-12T17:05:23.464Z,95903.81
2023-02-12T17:07:50.408Z,95894.56
2023-02-12T17:10:17.876Z,95897.25
2023-02-12T17:12:46.544Z,95894.00
2023-02-12T17:15:20.346Z,95907.47
2023-02-12T17:17:47.095Z,95905.28
2023-02-12T17:20:13.964Z,95906.63
2023-02-12T17:22:43.457Z,95908.47
2023-02-12T17:25:10.753Z,95912.78
2023-02-12T17:27:38.248Z,95913.53
2023-02-12T17:30:07.166Z,95911.88
2023-02-12T17:32:33.923Z,95911.28
2023-02-12T17:35:00.636Z,95912.09
2023-02-12T17:37:27.390Z,95909.41
2023-02-12T17:39:55.964Z,95910.03
2023-02-12T17:42:22.650Z,95911.78
2023-02-12T17:44:49.757Z,95907.69
2023-02-12T17:47:16.398Z,95907.94
2023-02-12T17:49:43.243Z,95913.34
2023-02-12T17:52:09.955Z,95908.72
2023-02-12T17:54:37.139Z,95918.41
2023-02-12T17:57:04.025Z,95919.56
2023-02-12T17:59:30.665Z,95926.84
2023-02-12T18:01:57.373Z,95922.41
2023-02-12T18:04:24.045Z,95931.41
2023-02-12T18:06:50.717Z,95931.81
2023-02-12T18:09:17.445Z,95939.16
2023-02-12T18:11:44.199Z,95942.19
2023-02-12T18:14:11.770Z,95934.38
2023-02-12T18:16:38.812Z,95935.66
2023-02-12T18:19:05.964Z,95940.72
2023-02-12T18:21:34.975Z,95938.38
2023-02-12T18:24:01.863Z,95936.75
2023-02-12T18:26:28.535Z,95940.72
2023-02-12T18:28:58.511Z,95934.19
2023-02-12T18:31:25.713Z,95940.56
2023-02-12T18:33:52.543Z,95951.22
2023-02-12T18:36:21.126Z,95951.47
2023-02-12T18:38:49.910Z,95945.69
2023-02-12T18:41:23.789Z,95945.44
2023-02-12T18:43:50.465Z,95937.28
2023-02-12T18:46:22.470Z,95949.25
2023-02-12T18:48:49.979Z,95939.50
2023-02-12T18:51:21.204Z,95937.28
2023-02-12T18:53:48.165Z,95940.19
2023-02-12T18:56:14.902Z,95936.91
2023-02-12T18:58:41.771Z,95932.53
2023-02-12T19:01:19.544Z,95938.91
2023-02-12T19:03:47.924Z,95927.63
2023-02-12T19:06:15.165Z,95938.47
2023-02-12T19:08:42.422Z,95935.31
2023-02-12T19:11:10.712Z,95938.91
2023-02-12T19:13:37.703Z,95933.34
2023-02-12T19:16:09.339Z,95936.84
2023-02-12T19:18:35.990Z,95935.91
2023-02-12T19:21:11.111Z,95941.38
2023-02-12T19:23:38.101Z,95929.16
2023-02-12T19:26:06.920Z,95932.19
2023-02-12T19:28:38.585Z,95936.72
2023-02-12T19:31:18.829Z,95940.56
2023-02-12T19:33:46.774Z,95938.94
2023-02-12T19:36:16.219Z,95942.38
2023-02-12T19:38:43.275Z,95949.22
2023-02-12T19:41:12.313Z,95946.00
2023-02-12T19:43:39.621Z,95952.63
2023-02-12T19:46:11.885Z,95947.16
2023-02-12T19:48:38.975Z,95953.53
2023-02-12T19:51:06.609Z,95949.94
2023-02-12T19:53:33.830Z,95950.28
2023-02-12T19:56:02.221Z,95951.69
2023-02-12T19:58:30.545Z,95953.53
2023-02-12T20:00:58.082Z,95950.75
2023-02-12T20:03:26.546Z,95955.38
2023-02-12T20:06:05.336Z,95948.84
2023-02-12T20:08:33.093Z,95947.00
2023-02-12T20:10:59.847Z,95946.78
2023-02-12T20:13:26.657Z,95952.09
2023-02-12T20:15:53.920Z,95947.25
2023-02-12T20:18:20.884Z,95948.19
2023-02-12T20:20:47.531Z,95952.06
2023-02-12T20:23:14.599Z,95951.13
2023-02-12T20:25:45.310Z,95948.69
2023-02-12T20:28:12.107Z,95947.38
2023-02-12T20:30:41.228Z,95952.44
2023-02-12T20:33:08.997Z,95959.72
2023-02-12T20:35:39.439Z,95951.94
2023-02-12T20:38:07.106Z,95955.22
2023-02-12T20:40:34.227Z,95954.97
2023-02-12T20:43:01.620Z,95960.06
2023-02-12T20:45:28.625Z,95957.66
2023-02-12T20:47:55.242Z,95960.81
2023-02-12T20:50:22.150Z,95962.66
2023-02-12T20:52:49.308Z,95966.63
2023-02-12T20:55:16.570Z,95969.19
2023-02-12T20:57:43.302Z,95963.25
2023-02-12T21:00:10.635Z,95968.69
2023-02-12T21:02:37.276Z,95966.72
2023-02-12T21:05:05.907Z,95963.13
2023-02-12T21:07:34.129Z,95969.19
2023-02-12T21:10:02.049Z,95968.00
2023-02-12T21:12:30.344Z,95964.03
2023-02-12T21:14:57.043Z,95966.84
2023-02-12T21:17:24.703Z,95969.75
2023-02-12T21:19:51.302Z,95964.06
2023-02-12T21:22:17.913Z,95968.47
2023-02-12T21:24:44.567Z,95976.16
2023-02-12T21:27:11.858Z,95967.78
2023-02-12T21:29:38.496Z,95969.41
2023-02-12T21:32:05.239Z,95973.59
2023-02-12T21:34:31.929Z,95977.06
2023-02-12T21:36:58.551Z,95972.41
2023-02-12T21:39:27.792Z,95974.31
2023-02-12T21:42:03.064Z,95970.66
2023-02-12T21:44:31.572Z,95968.59
2023-02-12T21:46:59.139Z,95960.56
2023-02-12T21:49:27.658Z,95969.41
2023-02-12T21:52:06.635Z,95970.81
2023-02-12T21:54:33.792Z,95973.13
2023-02-12T21:57:00.477Z,95957.78
2023-02-12T21:59:29.513Z,95957.31
2023-02-12T22:01:58.655Z,95970.94
2023-02-12T22:04:25.588Z,95961.97
2023-02-12T22:06:52.905Z,95967.31
2023-02-12T22:09:21.759Z,95954.50
2023-02-12T22:11:48.494Z,95959.16
2023-02-12T22:14:16.679Z,95954.88
2023-02-12T22:16:43.834Z,95959.88
2023-02-12T22:19:10.414Z,95951.03
2023-02-12T22:21:40.225Z,95965.81
2023-02-12T22:24:08.581Z,95968.59
2023-02-12T22:26:35.416Z,95969.41
2023-02-12T22:29:07.412Z,95969.19
2023-02-12T22:31:36.697Z,95955.91
2023-02-12T22:34:05.757Z,95962.44
2023-02-12T22:36:34.874Z,95968.94
2023-02-12T22:39:01.606Z,95968.88
2023-02-12T22:41:28.730Z,95961.91
2023-02-12T22:43:55.617Z,95963.31
2023-02-12T22:46:22.841Z,95966.00
2023-02-12T22:48:49.485Z,95960.66
2023-02-12T22:51:24.511Z,95958.44
2023-02-12T22:53:51.308Z,95966.31
2023-02-12T22:56:18.330Z,95970.84
2023-02-12T22:58:45.211Z,95975.13
2023-02-12T23:01:18.107Z,95973.56
2023-02-12T23:03:45.679Z,95962.00
2023-02-12T23:06:14.587Z,95964.56
2023-02-12T23:08:52.215Z,95961.03
2023-02-12T23:11:19.527Z,95976.00
2023-02-12T23:13:46.154Z,95969.56
2023-02-12T23:16:13.040Z,95970.75
2023-02-12T23:18:39.669Z,95974.19
2023-02-12T23:21:06.472Z,95979.50
2023-02-12T23:23:35.856Z,95982.53
2023-02-12T23:26:02.791Z,95973.31
2023-02-12T23:28:29.972Z,95976.03
2023-02-12T23:30:57.080Z,95973.84
2023-02-12T23:33:24.313Z,95979.06
2023-02-12T23:35:50.965Z,95980.69
2023-02-12T23:38:17.630Z,95976.72
2023-02-12T23:40:44.593Z,95966.41
2023-02-12T23:43:11.210Z,95971.13
2023-02-12T23:45:37.903Z,95969.50
2023-02-12T23:48:04.817Z,95959.28
2023-02-12T23:50:31.479Z,95964.94
2023-02-12T23:52:59.128Z,95966.25
2023-02-12T23:55:25.766Z,95955.81
2023-02-12T23:57:52.442Z,95956.19
